Dati Storici

Data ora Umidita' aria (%) Temperatura aria (°C) Rad globale (W/m²) Gonioanemometro (°) Tacoanemometro (m/s) Pioggia (mm)
01-11-2012 15:30 78.8 % 12.719 159.029 274.973 1.306 0
01-11-2012 15:20 78.9 % 12.791 187.091 233.652 0.706 0
01-11-2012 15:10 79.3 % 12.803 238.802 181.423 0.376 0
01-11-2012 15:00 79.1 % 12.938 151.645 229.469 0.694 0
01-11-2012 14:50 77.6 % 13.432 133.182 263.53 0.991 0
01-11-2012 14:40 80.9 % 12.973 475.264 302.937 0.455 0
01-11-2012 14:30 82.8 % 12.31 191.608 57.031 0.523 0
01-11-2012 14:20 83.2 % 11.875 363.411 209.944 1.029 0
01-11-2012 14:10 83.5 % 11.465 170.088 231.954 1.132 0
01-11-2012 14:00 83.3 % 11.953 259.027 298.955 0.901 0
01-11-2012 13:50 86.3 % 12.14 330.74 175.998 0.594 0
01-11-2012 13:40 87.5 % 11.492 256.8 89.369 0.197 0
01-11-2012 13:30 89.1 % 11.038 352.581 355.41 0.706 0
01-11-2012 13:20 90.2 % 10.64 103.252 309.887 0.754 0
01-11-2012 13:10 91.2 % 10.451 107.29 299.423 1.228 0
01-11-2012 13:00 91.7 % 10.318 136.995 267.312 0.607 0
01-11-2012 12:50 92.5 % 10.225 101.054 297.892 1.68 0
01-11-2012 12:40 93.3 % 10.182 234.183 337.397 1.051 0
01-11-2012 12:30 93.8 % 9.858 168.998 299.613 1.201 0
01-11-2012 12:20 94 % 9.652 110.507 262.653 1.115 0

I dati sono presentati in modo automatico a scopo informativo. In seguito a verifica i dati possono subire modifiche o essere invalidati e non riportati negli archivi definitivi.